Time;durP1;ratioP1;P1;durP2;ratioP2;P2;SDS_P1;SDS_P2;PMS_P1;PMS_P2;Temp;Humidity;BMP_temperature;BMP_pressure;BME280_temperature;BME280_humidity;BME280_pressure;Samples;Min_cycle;Max_cycle;Signal;HPM_P1;HPM_P2
2023/08/31 00:01:55;;;;;;;8.75;5.45;;;;;;;11.24;100.00;100764.75;5052390;28;20025;-84
2023/08/31 00:04:20;;;;;;;6.22;5.30;;;;;;;11.24;100.00;100759.50;5053817;28;20040;-84
2023/08/31 00:06:46;;;;;;;6.47;5.40;;;;;;;11.19;100.00;100765.09;5054191;28;20013;-83
2023/08/31 00:09:12;;;;;;;7.55;5.40;;;;;;;11.19;100.00;100764.25;5052664;28;20036;-83
2023/08/31 00:11:37;;;;;;;6.13;5.40;;;;;;;11.18;100.00;100768.69;5051934;28;20029;-83
2023/08/31 00:14:03;;;;;;;7.28;5.72;;;;;;;11.13;100.00;100757.69;5047274;28;20021;-82
2023/08/31 00:16:29;;;;;;;7.22;5.55;;;;;;;11.15;100.00;100758.41;5053353;28;20098;-83
2023/08/31 00:18:56;;;;;;;8.45;6.00;;;;;;;11.13;100.00;100759.47;5053030;28;20052;-83
2023/08/31 00:21:21;;;;;;;6.25;5.65;;;;;;;11.13;100.00;100762.09;5054529;28;20020;-84
2023/08/31 00:23:47;;;;;;;8.05;6.30;;;;;;;11.11;100.00;100759.59;5054407;28;20018;-84
2023/08/31 00:26:12;;;;;;;8.90;6.03;;;;;;;11.07;100.00;100760.78;5054514;28;20017;-83
2023/08/31 00:28:38;;;;;;;7.22;6.45;;;;;;;11.08;100.00;100751.94;5053157;28;20021;-84
2023/08/31 00:31:04;;;;;;;8.07;6.70;;;;;;;11.05;100.00;100761.88;5052949;28;20056;-83
2023/08/31 00:33:30;;;;;;;8.80;6.72;;;;;;;10.99;100.00;100755.28;5053066;28;20025;-83
2023/08/31 00:35:56;;;;;;;8.45;7.00;;;;;;;10.99;100.00;100763.19;5054360;28;20009;-84
2023/08/31 00:38:21;;;;;;;7.82;7.00;;;;;;;10.95;100.00;100759.09;5053827;28;20060;-83
2023/08/31 00:40:47;;;;;;;7.15;6.45;;;;;;;10.94;100.00;100760.91;5053256;28;20021;-83
2023/08/31 00:43:16;;;;;;;9.43;6.80;;;;;;;10.92;100.00;100760.19;5052964;28;20020;-83
2023/08/31 00:45:45;;;;;;;8.38;6.70;;;;;;;10.88;100.00;100765.81;5050406;28;20045;-84
2023/08/31 00:48:14;;;;;;;8.75;7.20;;;;;;;10.91;100.00;100761.13;5047176;28;20009;-84
2023/08/31 00:50:39;;;;;;;9.48;7.05;;;;;;;10.87;100.00;100766.75;5052175;28;20021;-84
2023/08/31 00:53:04;;;;;;;7.80;7.00;;;;;;;10.84;100.00;100759.09;5051833;28;20357;-83
2023/08/31 00:55:31;;;;;;;7.80;6.88;;;;;;;10.84;100.00;100762.56;5070301;28;20017;-83
2023/08/31 00:57:59;;;;;;;11.13;7.28;;;;;;;10.79;100.00;100762.06;5074385;28;20777;-84
2023/08/31 01:00:40;;;;;;;7.25;6.55;;;;;;;10.79;100.00;100761.22;5058952;28;20014;-83
2023/08/31 01:03:12;;;;;;;7.20;5.97;;;;;;;10.84;100.00;100756.47;5047039;28;20049;-83
2023/08/31 01:05:47;;;;;;;7.38;6.70;;;;;;;10.81;100.00;100757.53;5029159;28;20046;-84
2023/08/31 01:08:22;;;;;;;7.65;6.60;;;;;;;10.76;100.00;100758.81;5024252;28;20048;-83
2023/08/31 01:10:51;;;;;;;7.82;7.00;;;;;;;10.75;100.00;100752.72;5040664;28;20025;-84
2023/08/31 01:13:21;;;;;;;10.65;7.05;;;;;;;10.70;100.00;100754.03;5043175;28;20412;-84
2023/08/31 01:15:53;;;;;;;8.40;7.25;;;;;;;10.66;100.00;100753.44;5042174;28;20048;-84
2023/08/31 01:18:21;;;;;;;7.82;7.03;;;;;;;10.62;100.00;100750.19;5042365;28;20018;-84
2023/08/31 01:20:57;;;;;;;8.30;7.50;;;;;;;10.61;100.00;100747.69;5028971;28;20021;-84
2023/08/31 01:23:29;;;;;;;8.02;7.22;;;;;;;10.58;100.00;100751.38;5041875;28;20056;-84
2023/08/31 01:25:59;;;;;;;7.88;7.07;;;;;;;10.57;100.00;100754.97;5043069;28;20036;-84
2023/08/31 01:28:25;;;;;;;8.07;7.28;;;;;;;10.53;100.00;100750.91;5048628;28;20120;-84
2023/08/31 01:30:50;;;;;;;9.02;7.57;;;;;;;10.52;100.00;100754.47;5045499;28;20041;-83
2023/08/31 01:33:16;;;;;;;8.55;7.75;;;;;;;10.54;100.00;100768.34;5042315;28;20112;-84
2023/08/31 01:35:52;;;;;;;8.55;7.53;;;;;;;10.54;100.00;100765.72;5033043;28;20030;-83
2023/08/31 01:38:25;;;;;;;8.82;7.38;;;;;;;10.52;100.00;100767.63;5034149;28;20026;-84
2023/08/31 01:41:00;;;;;;;9.07;8.02;;;;;;;10.51;100.00;100767.75;5039504;28;20093;-83
2023/08/31 01:43:27;;;;;;;10.13;8.13;;;;;;;10.50;100.00;100763.44;5041559;28;20021;-84
2023/08/31 01:45:53;;;;;;;9.23;8.32;;;;;;;10.50;100.00;100769.53;5039980;28;20076;-83
2023/08/31 01:48:18;;;;;;;10.43;8.90;;;;;;;10.49;100.00;100767.88;5044041;28;20030;-83
2023/08/31 01:50:44;;;;;;;11.07;8.93;;;;;;;10.52;100.00;100772.06;5045584;28;20021;-84
2023/08/31 01:53:09;;;;;;;10.75;8.88;;;;;;;10.51;100.00;100776.47;5029038;28;20030;-84
2023/08/31 01:55:35;;;;;;;10.35;9.35;;;;;;;10.51;100.00;100765.97;5061425;28;20028;-84
2023/08/31 01:58:01;;;;;;;10.73;9.60;;;;;;;10.54;100.00;100772.78;5047371;28;20118;-84
2023/08/31 02:00:26;;;;;;;13.05;9.95;;;;;;;10.53;100.00;100766.69;5042289;28;20044;-84
2023/08/31 02:02:51;;;;;;;10.60;9.50;;;;;;;10.55;100.00;100771.81;5045241;28;20021;-83
2023/08/31 02:05:17;;;;;;;11.43;10.30;;;;;;;10.55;100.00;100777.09;5046423;28;20025;-84
2023/08/31 02:07:43;;;;;;;10.85;9.75;;;;;;;10.59;100.00;100773.25;5044020;28;20029;-82
2023/08/31 02:10:08;;;;;;;11.00;9.90;;;;;;;10.64;100.00;100782.47;5034395;28;20037;-84
2023/08/31 02:12:36;;;;;;;11.20;10.05;;;;;;;10.68;100.00;100781.31;5028630;28;20025;-84
2023/08/31 02:15:01;;;;;;;10.85;9.80;;;;;;;10.69;100.00;100779.50;5044563;28;20172;-83
2023/08/31 02:17:26;;;;;;;11.82;10.25;;;;;;;10.71;100.00;100787.28;5043191;28;20060;-84
2023/08/31 02:19:52;;;;;;;11.35;10.18;;;;;;;10.74;100.00;100781.78;5034224;28;20116;-84
2023/08/31 02:22:17;;;;;;;11.85;10.63;;;;;;;10.72;100.00;100778.44;5018944;28;20069;-84
2023/08/31 02:24:43;;;;;;;11.52;10.38;;;;;;;10.71;100.00;100782.03;5021208;28;20032;-83
2023/08/31 02:27:08;;;;;;;16.77;11.38;;;;;;;10.74;100.00;100774.72;5032808;28;20029;-83
2023/08/31 02:29:33;;;;;;;12.88;10.68;;;;;;;10.77;100.00;100771.03;5047332;28;20032;-84
2023/08/31 02:31:59;;;;;;;14.02;11.45;;;;;;;10.76;100.00;100780.72;5032470;28;20021;-84
2023/08/31 02:34:24;;;;;;;12.82;11.05;;;;;;;10.77;100.00;100781.56;5030918;28;20382;-84
2023/08/31 02:36:49;;;;;;;12.75;11.00;;;;;;;10.75;100.00;100765.03;5032958;28;20021;-83
2023/08/31 02:39:16;;;;;;;14.25;11.65;;;;;;;10.69;100.00;100774.25;5031467;28;20022;-84
2023/08/31 02:41:44;;;;;;;13.32;11.55;;;;;;;10.68;100.00;100778.66;5033422;28;20025;-84
2023/08/31 02:44:11;;;;;;;15.13;13.52;;;;;;;10.71;100.00;100784.66;5032477;28;20473;-84
2023/08/31 02:46:36;;;;;;;17.40;15.30;;;;;;;10.66;100.00;100783.22;5031347;28;20029;-84
2023/08/31 02:49:02;;;;;;;19.95;17.88;;;;;;;10.67;100.00;100782.25;5027159;28;20398;-84
2023/08/31 02:51:27;;;;;;;20.20;18.20;;;;;;;10.67;100.00;100777.00;5028060;28;20095;-84
2023/08/31 02:53:53;;;;;;;24.67;21.05;;;;;;;10.62;100.00;100779.13;5028777;28;20414;-84
2023/08/31 02:56:18;;;;;;;25.85;23.10;;;;;;;10.59;100.00;100779.38;5032339;28;20108;-84
2023/08/31 02:58:44;;;;;;;27.25;24.42;;;;;;;10.57;100.00;100781.28;5031904;28;20104;-84
2023/08/31 03:01:13;;;;;;;28.38;25.42;;;;;;;10.55;100.00;100791.06;5032151;28;20029;-83
2023/08/31 03:03:39;;;;;;;27.38;24.58;;;;;;;10.56;100.00;100774.34;5029888;28;20421;-84
2023/08/31 03:06:09;;;;;;;25.80;23.10;;;;;;;10.57;100.00;100781.28;5026338;28;20028;-84
2023/08/31 03:08:36;;;;;;;25.50;23.00;;;;;;;10.54;100.00;100781.50;5036078;28;20022;-84
2023/08/31 03:11:03;;;;;;;25.95;22.00;;;;;;;10.56;100.00;100778.75;5021452;28;20037;-84
2023/08/31 03:13:28;;;;;;;23.50;21.10;;;;;;;10.55;100.00;100772.66;5029632;28;20029;-84
2023/08/31 03:15:54;;;;;;;23.75;21.25;;;;;;;10.51;100.00;100784.38;5031249;28;20048;-84
2023/08/31 03:18:19;;;;;;;22.70;20.30;;;;;;;10.45;100.00;100781.38;5029834;28;20033;-84
2023/08/31 03:20:44;;;;;;;21.45;19.17;;;;;;;10.46;100.00;100778.63;5030469;28;20030;-84
2023/08/31 03:23:11;;;;;;;20.55;18.45;;;;;;;10.47;100.00;100790.81;5027117;28;20032;-84
2023/08/31 03:25:36;;;;;;;20.70;18.60;;;;;;;10.43;100.00;100788.53;5030639;28;20382;-84
2023/08/31 03:28:03;;;;;;;19.80;17.73;;;;;;;10.39;100.00;100789.69;5030956;28;20028;-84
2023/08/31 03:30:28;;;;;;;20.35;18.15;;;;;;;10.35;100.00;100796.97;5048524;28;20620;-84
2023/08/31 03:32:54;;;;;;;20.77;18.75;;;;;;;10.34;100.00;100790.03;5029820;28;20152;-84
2023/08/31 03:35:19;;;;;;;21.77;19.38;;;;;;;10.36;100.00;100790.75;5029671;28;20032;-84
2023/08/31 03:37:48;;;;;;;23.98;21.67;;;;;;;10.35;100.00;100789.91;5027691;28;20017;-83
2023/08/31 03:40:13;;;;;;;25.13;22.52;;;;;;;10.36;100.00;100793.38;5030757;28;20028;-84
2023/08/31 03:42:38;;;;;;;27.63;25.02;;;;;;;10.36;100.00;100785.50;5030076;28;20477;-83
2023/08/31 03:45:05;;;;;;;34.20;27.05;;;;;;;10.36;100.00;100782.84;5029437;28;20103;-84
2023/08/31 03:47:30;;;;;;;31.58;28.17;;;;;;;10.35;100.00;100779.38;5031216;28;20033;-84
2023/08/31 03:49:56;;;;;;;30.85;27.65;;;;;;;10.33;100.00;100778.66;5044699;28;20117;-83
2023/08/31 03:52:22;;;;;;;34.55;28.17;;;;;;;10.30;100.00;100778.06;5030855;28;20033;-84
2023/08/31 03:54:48;;;;;;;33.22;29.33;;;;;;;10.31;100.00;100775.31;5033588;28;20018;-84
2023/08/31 03:57:13;;;;;;;33.33;29.17;;;;;;;10.30;100.00;100772.78;5044603;28;20500;-84
2023/08/31 03:59:38;;;;;;;33.50;29.92;;;;;;;10.30;100.00;100772.78;5029241;28;20099;-84
2023/08/31 04:02:04;;;;;;;34.28;30.70;;;;;;;10.27;100.00;100775.66;5025744;28;20128;-84
2023/08/31 04:04:29;;;;;;;31.80;28.40;;;;;;;10.29;100.00;100781.63;5025826;28;20030;-85
2023/08/31 04:06:54;;;;;;;30.63;27.55;;;;;;;10.28;100.00;100787.84;5027628;28;20025;-84
2023/08/31 04:09:20;;;;;;;30.77;27.58;;;;;;;10.29;100.00;100787.75;5028976;28;20049;-85
2023/08/31 04:11:46;;;;;;;31.35;26.23;;;;;;;10.27;100.00;100784.38;5027307;28;20036;-85
2023/08/31 04:14:11;;;;;;;27.58;24.58;;;;;;;10.28;100.00;100791.31;5024273;28;20029;-85
2023/08/31 04:16:36;;;;;;;27.80;24.65;;;;;;;10.28;100.00;100785.22;5027356;28;20120;-85
2023/08/31 04:19:02;;;;;;;26.23;23.42;;;;;;;10.28;100.00;100790.47;5029797;28;20568;-85
2023/08/31 04:21:27;;;;;;;24.45;21.95;;;;;;;10.28;100.00;100807.09;5028112;28;20440;-84
2023/08/31 04:23:53;;;;;;;24.27;21.77;;;;;;;10.27;100.00;100800.16;5028175;28;20083;-85
2023/08/31 04:26:20;;;;;;;24.90;22.20;;;;;;;10.27;100.00;100799.31;5028820;28;20399;-85
2023/08/31 04:28:45;;;;;;;22.88;20.55;;;;;;;10.28;100.00;100801.00;5026699;28;20362;-85
2023/08/31 04:31:11;;;;;;;22.58;19.92;;;;;;;10.28;100.00;100801.00;5029120;28;20033;-84
2023/08/31 04:33:38;;;;;;;21.73;19.52;;;;;;;10.27;100.00;100805.41;5029147;28;20033;-85
2023/08/31 04:36:06;;;;;;;21.33;19.25;;;;;;;10.25;100.00;100811.75;5044803;28;20477;-84
2023/08/31 04:38:32;;;;;;;21.30;18.98;;;;;;;10.24;100.00;100812.69;5027097;28;20473;-85
2023/08/31 04:41:01;;;;;;;19.90;17.90;;;;;;;10.24;100.00;100812.69;5028033;28;20021;-85
2023/08/31 04:43:27;;;;;;;19.30;16.75;;;;;;;10.24;100.00;100810.91;5027014;28;20504;-85
2023/08/31 04:45:53;;;;;;;18.30;16.40;;;;;;;10.23;100.00;100809.22;5025272;28;20042;-85
2023/08/31 04:48:18;;;;;;;18.00;15.77;;;;;;;10.23;100.00;100811.03;5025316;28;20029;-85
2023/08/31 04:50:44;;;;;;;18.05;16.20;;;;;;;10.21;100.00;100811.13;5029525;28;20033;-85
2023/08/31 04:53:09;;;;;;;16.73;15.23;;;;;;;10.24;100.00;100817.94;5041103;28;20556;-84
2023/08/31 04:55:34;;;;;;;16.48;14.73;;;;;;;10.23;100.00;100819.75;5031511;28;20088;-85
2023/08/31 04:58:00;;;;;;;16.25;13.50;;;;;;;10.21;100.00;100815.56;5028388;28;20136;-85
2023/08/31 05:00:25;;;;;;;15.30;13.60;;;;;;;10.26;100.00;100822.16;5028208;28;20036;-84
2023/08/31 05:02:50;;;;;;;17.95;13.30;;;;;;;10.24;100.00;100831.09;5027715;28;20022;-85
2023/08/31 05:05:18;;;;;;;14.57;13.07;;;;;;;10.26;100.00;100837.09;5027556;28;20096;-84
2023/08/31 05:07:43;;;;;;;14.20;12.65;;;;;;;10.24;100.00;100826.69;5043493;28;20040;-84
2023/08/31 05:10:09;;;;;;;13.73;12.43;;;;;;;10.24;100.00;100828.47;5028729;28;20417;-85
2023/08/31 05:12:35;;;;;;;13.90;12.45;;;;;;;10.25;100.00;100832.78;5028550;28;20033;-84
2023/08/31 05:15:00;;;;;;;13.15;11.63;;;;;;;10.23;100.00;100840.78;5027862;28;20013;-84
2023/08/31 05:17:25;;;;;;;14.35;11.75;;;;;;;10.25;100.00;100848.56;5028181;28;20040;-84
2023/08/31 05:19:51;;;;;;;12.88;11.07;;;;;;;10.24;100.00;100839.81;5029388;28;20521;-85
2023/08/31 05:22:17;;;;;;;12.80;11.25;;;;;;;10.27;100.00;100842.25;5027633;28;20371;-84
2023/08/31 05:24:43;;;;;;;12.70;11.40;;;;;;;10.29;100.00;100850.00;5028496;28;20138;-84
2023/08/31 05:27:08;;;;;;;12.88;10.70;;;;;;;10.28;100.00;100853.59;5029383;28;20615;-85
2023/08/31 05:29:33;;;;;;;13.02;11.10;;;;;;;10.30;100.00;100851.69;5048218;28;20046;-85
2023/08/31 05:31:59;;;;;;;11.82;9.82;;;;;;;10.30;100.00;100867.47;5052812;28;20021;-85
2023/08/31 05:34:24;;;;;;;13.88;10.48;;;;;;;10.29;100.00;100864.00;5052945;28;20385;-84
2023/08/31 05:36:50;;;;;;;14.52;10.45;;;;;;;10.34;100.00;100866.28;5034993;28;20083;-84
2023/08/31 05:39:18;;;;;;;10.80;9.50;;;;;;;10.34;100.00;100868.91;5031710;28;20067;-85
2023/08/31 05:41:43;;;;;;;12.23;10.43;;;;;;;10.36;100.00;100872.28;5029832;28;20060;-84
2023/08/31 05:44:12;;;;;;;10.75;9.63;;;;;;;10.38;100.00;100880.06;5038346;28;20030;-85
2023/08/31 05:46:39;;;;;;;12.05;9.88;;;;;;;10.41;100.00;100870.19;5030335;28;20074;-85
2023/08/31 05:49:04;;;;;;;12.95;9.60;;;;;;;10.45;100.00;100876.91;5031436;28;20390;-85
2023/08/31 05:51:30;;;;;;;12.82;10.23;;;;;;;10.47;100.00;100869.72;5031185;28;20018;-85
2023/08/31 05:53:55;;;;;;;11.57;10.05;;;;;;;10.51;100.00;100879.06;5035310;28;20040;-85
2023/08/31 05:56:21;;;;;;;11.23;10.02;;;;;;;10.56;100.00;100879.56;5047018;28;20025;-85
2023/08/31 05:58:47;;;;;;;13.88;9.75;;;;;;;10.62;100.00;100880.91;5030367;28;20021;-85
2023/08/31 06:01:12;;;;;;;13.02;9.77;;;;;;;10.64;100.00;100879.84;5016956;28;20445;-85
2023/08/31 06:03:38;;;;;;;12.30;10.00;;;;;;;10.70;100.00;100885.59;5027150;28;20112;-85
2023/08/31 06:06:03;;;;;;;10.90;9.73;;;;;;;10.74;100.00;100887.06;5030484;28;20025;-85
2023/08/31 06:08:30;;;;;;;14.20;9.65;;;;;;;10.79;100.00;100877.84;5031478;28;20042;-85
2023/08/31 06:10:55;;;;;;;23.85;11.32;;;;;;;10.86;100.00;100887.00;5029148;28;20104;-85
2023/08/31 06:13:21;;;;;;;16.85;10.10;;;;;;;10.90;100.00;100884.97;5045338;28;20141;-85
2023/08/31 06:15:46;;;;;;;18.25;10.20;;;;;;;10.94;100.00;100883.78;5022691;28;20029;-85
2023/08/31 06:18:12;;;;;;;18.65;10.68;;;;;;;11.01;100.00;100892.06;5031221;28;20116;-85
2023/08/31 06:20:40;;;;;;;14.88;10.43;;;;;;;11.06;100.00;100896.03;5032383;28;20048;-85
2023/08/31 06:23:06;;;;;;;12.07;9.30;;;;;;;11.11;100.00;100896.50;5031985;28;20029;-85
2023/08/31 06:25:31;;;;;;;10.80;9.63;;;;;;;11.17;100.00;100896.06;5032546;28;20485;-85
2023/08/31 06:27:58;;;;;;;13.52;9.65;;;;;;;11.23;100.00;100900.88;5031340;28;20345;-85
2023/08/31 06:30:24;;;;;;;12.38;9.88;;;;;;;11.30;100.00;100902.09;5034343;28;20513;-86
2023/08/31 06:32:50;;;;;;;12.02;9.57;;;;;;;11.36;100.00;100902.56;5029715;28;20094;-85
2023/08/31 06:35:15;;;;;;;11.75;9.70;;;;;;;11.42;100.00;100907.38;5029996;28;20424;-85
2023/08/31 06:37:45;;;;;;;11.13;8.82;;;;;;;11.49;100.00;100911.19;5028676;28;20049;-85
2023/08/31 06:40:12;;;;;;;11.98;9.23;;;;;;;11.54;100.00;100912.53;5029928;28;20025;-86
2023/08/31 06:42:38;;;;;;;11.65;9.50;;;;;;;11.60;100.00;100898.88;5027851;28;20481;-85
2023/08/31 06:45:05;;;;;;;13.30;9.43;;;;;;;11.69;100.00;100904.41;5029589;28;20057;-85
2023/08/31 06:47:30;;;;;;;10.18;9.18;;;;;;;11.77;100.00;100908.13;5028500;28;20025;-85
2023/08/31 06:49:57;;;;;;;12.48;9.50;;;;;;;11.85;100.00;100913.66;5031941;28;20082;-85
2023/08/31 06:52:23;;;;;;;14.52;9.65;;;;;;;11.95;100.00;100918.22;5030405;28;20543;-85
2023/08/31 06:54:48;;;;;;;13.95;9.93;;;;;;;12.04;100.00;100914.88;5033478;28;20017;-85
2023/08/31 06:57:14;;;;;;;14.10;8.90;;;;;;;12.13;100.00;100916.78;5031450;28;20055;-85
2023/08/31 06:59:40;;;;;;;13.07;9.45;;;;;;;12.26;100.00;100917.47;5029760;28;20482;-85
2023/08/31 07:02:05;;;;;;;13.40;9.00;;;;;;;12.38;100.00;100927.03;5029526;28;20026;-85
2023/08/31 07:04:31;;;;;;;13.25;8.95;;;;;;;12.52;100.00;100924.13;5030152;28;20044;-85
2023/08/31 07:06:56;;;;;;;9.63;8.32;;;;;;;12.68;100.00;100929.00;5026407;28;20385;-82
2023/08/31 07:09:21;;;;;;;12.63;8.65;;;;;;;12.80;100.00;100932.44;5030911;28;20474;-81
2023/08/31 07:11:47;;;;;;;12.52;8.90;;;;;;;12.96;100.00;100926.75;5028829;28;20397;-81
2023/08/31 07:14:12;;;;;;;14.02;8.45;;;;;;;13.10;100.00;100929.91;5028411;28;20071;-81
2023/08/31 07:16:37;;;;;;;12.23;8.60;;;;;;;13.26;100.00;100928.69;5029493;28;20013;-81
2023/08/31 07:19:03;;;;;;;12.20;7.65;;;;;;;13.47;100.00;100932.97;5028403;28;20692;-81
2023/08/31 07:21:29;;;;;;;9.65;7.68;;;;;;;13.63;100.00;100927.25;5030093;28;20040;-83
2023/08/31 07:23:54;;;;;;;11.90;7.93;;;;;;;13.83;100.00;100932.63;5030156;28;20028;-84
2023/08/31 07:26:20;;;;;;;13.15;7.63;;;;;;;14.00;100.00;100939.91;5043074;28;20040;-84
2023/08/31 07:28:46;;;;;;;10.65;7.28;;;;;;;14.14;100.00;100936.94;5037173;28;20155;-84
2023/08/31 07:31:12;;;;;;;12.98;7.05;;;;;;;14.33;100.00;100931.69;5030363;28;20116;-84
2023/08/31 07:33:37;;;;;;;10.20;6.82;;;;;;;14.55;100.00;100938.59;5028916;28;20029;-85
2023/08/31 07:36:05;;;;;;;14.90;7.95;;;;;;;14.79;100.00;100929.41;5030544;28;20037;-84
2023/08/31 07:38:31;;;;;;;8.25;6.70;;;;;;;14.98;100.00;100932.09;5026961;28;20215;-85
2023/08/31 07:40:57;;;;;;;14.98;7.00;;;;;;;15.19;100.00;100937.22;5023941;28;20099;-84
2023/08/31 07:43:22;;;;;;;17.52;6.68;;;;;;;15.38;100.00;100939.03;5029792;28;20580;-84
2023/08/31 07:45:48;;;;;;;10.38;6.55;;;;;;;15.43;100.00;100945.56;5029285;28;20046;-85
2023/08/31 07:48:14;;;;;;;11.63;6.30;;;;;;;15.62;100.00;100936.78;5027675;28;20026;-84
2023/08/31 07:50:43;;;;;;;14.80;6.03;;;;;;;15.76;100.00;100943.44;5029212;28;20036;-84
2023/08/31 07:53:08;;;;;;;8.95;6.20;;;;;;;15.99;100.00;100944.72;5029646;28;20112;-83
2023/08/31 07:55:35;;;;;;;10.88;5.97;;;;;;;16.09;100.00;100934.94;5028267;28;20180;-82
2023/08/31 07:58:01;;;;;;;9.05;5.70;;;;;;;16.21;100.00;100931.09;5011168;28;20034;-84
2023/08/31 08:00:26;;;;;;;11.13;5.60;;;;;;;16.35;100.00;100936.88;5025659;28;20026;-83
2023/08/31 08:02:52;;;;;;;11.27;5.90;;;;;;;16.52;99.82;100946.72;5009666;28;20504;-84
2023/08/31 08:05:17;;;;;;;9.90;5.75;;;;;;;16.58;100.00;100935.50;5010328;28;20105;-83
2023/08/31 08:07:43;;;;;;;8.55;5.38;;;;;;;16.64;99.35;100950.81;5032859;28;20107;-83
2023/08/31 08:10:09;;;;;;;10.40;5.70;;;;;;;16.65;97.51;100947.19;5049177;28;20033;-81
2023/08/31 08:12:47;;;;;;;8.75;5.57;;;;;;;16.68;97.62;100952.22;5029454;28;20368;-83
2023/08/31 08:15:13;;;;;;;7.10;5.13;;;;;;;16.76;96.83;100943.50;5027883;28;20115;-83
2023/08/31 08:17:38;;;;;;;10.75;5.45;;;;;;;16.99;98.53;100944.72;5028340;28;20025;-84
2023/08/31 08:20:06;;;;;;;9.70;5.72;;;;;;;17.11;96.12;100953.28;5029775;28;20620;-83
2023/08/31 08:22:32;;;;;;;8.63;5.70;;;;;;;17.27;95.20;100952.63;5028056;28;20087;-84
2023/08/31 08:24:57;;;;;;;7.63;5.43;;;;;;;17.28;93.85;100949.81;5025555;28;20085;-83
2023/08/31 08:27:23;;;;;;;8.63;5.47;;;;;;;17.43;93.44;100950.91;5027497;28;20533;-84
2023/08/31 08:29:48;;;;;;;10.68;5.30;;;;;;;17.47;93.37;100956.75;5033476;28;20039;-83
2023/08/31 08:32:13;;;;;;;10.95;5.75;;;;;;;17.53;92.26;100953.47;5028575;28;20020;-83
2023/08/31 08:34:39;;;;;;;9.63;5.03;;;;;;;17.69;92.40;100958.09;5030250;28;20397;-84
2023/08/31 08:37:04;;;;;;;10.05;5.40;;;;;;;17.96;92.22;100954.41;5027579;28;20025;-81
2023/08/31 08:39:30;;;;;;;9.40;5.72;;;;;;;18.10;90.69;100959.16;5029152;28;20025;-84
2023/08/31 08:41:58;;;;;;;9.63;5.00;;;;;;;18.28;88.84;100964.38;5026603;28;20021;-84
2023/08/31 08:44:27;;;;;;;10.50;4.97;;;;;;;18.56;87.97;100962.34;5029463;28;20525;-85
2023/08/31 08:46:53;;;;;;;9.88;5.40;;;;;;;18.66;86.90;100968.38;5029023;28;20033;-83
2023/08/31 08:49:21;;;;;;;9.63;4.93;;;;;;;18.71;86.08;100969.56;5029947;28;20067;-83
2023/08/31 08:51:50;;;;;;;12.15;5.55;;;;;;;18.81;86.15;100963.22;5028074;28;20140;-84
2023/08/31 08:54:17;;;;;;;7.13;4.60;;;;;;;19.06;85.80;100972.94;5035955;28;20024;-83
2023/08/31 08:56:42;;;;;;;8.45;4.90;;;;;;;18.98;83.70;100973.78;5031737;28;20021;-83
2023/08/31 08:59:14;;;;;;;8.90;4.65;;;;;;;18.95;86.69;100975.94;5026488;28;20552;-84
2023/08/31 09:01:39;;;;;;;6.07;4.45;;;;;;;19.22;86.39;100980.97;5016275;28;20124;-84
2023/08/31 09:04:06;;;;;;;10.63;4.72;;;;;;;19.04;82.67;100977.63;5031401;28;20029;-79
2023/08/31 09:06:31;;;;;;;8.45;4.50;;;;;;;19.01;83.90;100986.78;5030380;28;20037;-83
2023/08/31 09:08:57;;;;;;;9.93;4.40;;;;;;;18.92;83.13;100982.44;5030469;28;20041;-84
2023/08/31 09:11:23;;;;;;;8.93;4.13;;;;;;;18.95;84.41;100984.78;5024005;28;20041;-84
2023/08/31 09:13:50;;;;;;;10.30;4.80;;;;;;;18.99;83.48;100974.63;5031441;28;20017;-84
2023/08/31 09:16:26;;;;;;;7.93;4.35;;;;;;;19.17;84.72;100987.78;5030886;28;20028;-82
2023/08/31 09:18:52;;;;;;;10.77;4.55;;;;;;;19.13;82.50;100981.94;5030741;28;20100;-82
2023/08/31 09:21:19;;;;;;;8.57;4.10;;;;;;;19.35;83.95;100986.63;5032308;28;20025;-83
2023/08/31 09:23:47;;;;;;;8.48;4.22;;;;;;;19.61;81.20;100988.31;5032598;28;20040;-83
2023/08/31 09:26:13;;;;;;;11.00;4.15;;;;;;;19.87;77.68;100991.63;5032583;28;20144;-82
2023/08/31 09:28:40;;;;;;;5.45;3.60;;;;;;;19.73;76.61;100986.16;5032934;28;20108;-82
2023/08/31 09:31:07;;;;;;;5.53;3.40;;;;;;;20.01;77.11;100992.75;5030186;28;20044;-82
2023/08/31 09:33:36;;;;;;;9.88;4.40;;;;;;;19.86;75.27;100989.94;5031628;28;20403;-82
2023/08/31 09:36:03;;;;;;;5.80;3.80;;;;;;;19.70;78.05;100985.47;5013010;28;20367;-82
2023/08/31 09:38:29;;;;;;;6.75;3.75;;;;;;;19.70;79.55;100995.31;5026686;28;20037;-82
2023/08/31 09:41:04;;;;;;;5.43;3.58;;;;;;;19.78;80.69;100997.97;5019465;28;20036;-82
2023/08/31 09:43:30;;;;;;;7.93;4.05;;;;;;;19.97;78.64;100994.09;5013566;28;20037;-81
2023/08/31 09:45:55;;;;;;;7.68;4.15;;;;;;;19.93;77.59;100998.09;5029191;28;20158;-82
2023/08/31 09:48:22;;;;;;;5.85;3.70;;;;;;;19.99;73.45;100998.25;5030759;28;20025;-81
2023/08/31 09:50:51;;;;;;;7.90;4.32;;;;;;;20.25;76.71;100984.66;5030756;28;20112;-81
2023/08/31 09:53:16;;;;;;;3.85;3.00;;;;;;;20.38;76.40;100989.44;5031604;28;20132;-82
2023/08/31 09:55:43;;;;;;;4.65;3.33;;;;;;;20.22;73.02;100995.69;5044754;28;20066;-81
2023/08/31 09:58:09;;;;;;;6.95;3.40;;;;;;;20.07;72.47;100994.75;5031865;28;20494;-82
2023/08/31 10:00:36;;;;;;;5.20;3.65;;;;;;;20.21;70.87;100994.03;5028738;28;20060;-81
2023/08/31 10:03:04;;;;;;;7.43;3.13;;;;;;;20.58;71.57;100995.25;5031111;28;20457;-81
2023/08/31 10:05:30;;;;;;;7.50;3.22;;;;;;;20.68;72.56;100995.00;5030838;28;20120;-82
2023/08/31 10:07:58;;;;;;;5.80;3.40;;;;;;;20.63;69.71;100988.34;5028777;28;20035;-82
2023/08/31 10:10:23;;;;;;;5.72;2.80;;;;;;;20.83;69.60;100995.94;5030423;28;20025;-82
2023/08/31 10:12:51;;;;;;;7.72;3.30;;;;;;;21.01;67.85;100987.63;5028954;28;20624;-81
2023/08/31 10:15:17;;;;;;;7.55;2.92;;;;;;;21.13;65.59;100992.38;5028434;28;20547;-82
2023/08/31 10:17:43;;;;;;;5.13;2.90;;;;;;;20.71;64.62;100994.66;5030509;28;20091;-81
2023/08/31 10:20:11;;;;;;;7.18;3.30;;;;;;;20.45;65.42;100993.13;5030034;28;20456;-81
2023/08/31 10:22:37;;;;;;;6.07;2.60;;;;;;;20.38;65.82;100996.63;5030424;28;20555;-82
2023/08/31 10:25:05;;;;;;;6.25;2.70;;;;;;;20.08;65.27;100998.25;5029719;28;20029;-82
2023/08/31 10:27:39;;;;;;;4.20;2.80;;;;;;;19.84;66.47;100997.28;5030679;28;20032;-81
2023/08/31 10:30:22;;;;;;;9.05;3.13;;;;;;;19.57;70.80;100995.00;5032370;28;20056;-81
2023/08/31 10:33:09;;;;;;;5.05;2.75;;;;;;;19.67;71.34;100990.34;5030147;28;20025;-81
2023/08/31 10:36:01;;;;;;;6.32;2.75;;;;;;;19.73;72.64;100995.00;5027957;28;20532;-82
2023/08/31 10:38:32;;;;;;;8.95;2.80;;;;;;;19.54;69.81;100992.66;5028793;28;20033;-81
2023/08/31 10:41:03;;;;;;;8.40;2.72;;;;;;;19.77;69.45;100990.97;5026978;28;20410;-81
2023/08/31 10:43:48;;;;;;;6.40;2.85;;;;;;;20.08;72.12;100977.72;5025266;28;20320;-81
2023/08/31 10:46:38;;;;;;;5.82;2.35;;;;;;;20.30;68.00;100970.78;5027077;28;20061;-81
2023/08/31 10:49:10;;;;;;;6.13;2.60;;;;;;;20.13;66.03;100975.34;5030154;28;20046;-82
2023/08/31 10:51:45;;;;;;;6.03;2.30;;;;;;;19.91;63.20;100970.75;5030690;28;20029;-81
2023/08/31 10:54:25;;;;;;;5.28;2.47;;;;;;;20.05;65.78;100962.03;5028509;28;20029;-81
2023/08/31 10:57:10;;;;;;;7.72;2.70;;;;;;;20.21;62.92;100963.81;5027034;28;20047;-82
2023/08/31 10:59:49;;;;;;;5.35;2.47;;;;;;;20.53;64.00;100966.38;5030323;28;20109;-85
2023/08/31 11:02:28;;;;;;;4.30;2.30;;;;;;;20.80;63.83;100972.19;5016892;28;20044;-83
2023/08/31 11:04:56;;;;;;;7.13;2.33;;;;;;;20.69;60.02;100953.91;5027423;28;20038;-83
2023/08/31 11:07:26;;;;;;;5.35;2.15;;;;;;;20.53;61.64;100955.66;5026496;28;20029;-82
2023/08/31 11:09:51;;;;;;;6.90;2.35;;;;;;;20.26;61.72;100969.47;5039053;28;20087;-83
2023/08/31 11:12:17;;;;;;;6.32;2.20;;;;;;;19.99;63.90;100968.03;5027684;28;20115;-83